createdAt,value
2018-11-11T00:02:08.542Z,38.00
2018-11-11T00:04:35.891Z,37.10
2018-11-11T00:07:03.187Z,39.03
2018-11-11T00:09:30.475Z,41.40
2018-11-11T00:11:57.739Z,36.03
2018-11-11T00:14:24.992Z,36.63
2018-11-11T00:16:52.227Z,39.10
2018-11-11T00:19:19.696Z,39.00
2018-11-11T00:21:46.952Z,40.00
2018-11-11T00:24:14.179Z,37.78
2018-11-11T00:26:41.411Z,39.63
2018-11-11T00:29:08.627Z,41.73
2018-11-11T00:31:35.871Z,37.25
2018-11-11T00:34:03.184Z,38.13
2018-11-11T00:36:30.496Z,37.70
2018-11-11T00:38:57.719Z,38.67
2018-11-11T00:41:37.270Z,37.98
2018-11-11T00:44:04.768Z,40.75
2018-11-11T00:46:32.042Z,39.57
2018-11-11T00:48:59.362Z,41.68
2018-11-11T00:51:26.621Z,38.10
2018-11-11T00:53:54.353Z,37.60
2018-11-11T00:56:21.589Z,36.37
2018-11-11T00:58:48.939Z,34.90
2018-11-11T01:01:16.175Z,37.83
2018-11-11T01:03:43.442Z,39.18
2018-11-11T01:06:10.796Z,43.80
2018-11-11T01:08:38.043Z,38.30
2018-11-11T01:11:05.329Z,41.50
2018-11-11T01:13:32.612Z,43.30
2018-11-11T01:16:00.256Z,42.45
2018-11-11T01:18:27.588Z,40.53
2018-11-11T01:20:54.844Z,39.87
2018-11-11T01:23:22.120Z,41.47
2018-11-11T01:25:49.403Z,39.08
2018-11-11T01:28:16.695Z,42.35
2018-11-11T01:30:44.032Z,38.53
2018-11-11T01:33:11.304Z,50.83
2018-11-11T01:35:38.565Z,41.40
2018-11-11T01:38:05.858Z,37.60
2018-11-11T01:40:33.139Z,42.45
2018-11-11T01:43:00.447Z,40.95
2018-11-11T01:45:27.793Z,40.43
2018-11-11T01:47:55.047Z,40.30
2018-11-11T01:50:22.349Z,45.03
2018-11-11T01:52:49.665Z,43.00
2018-11-11T01:55:16.961Z,44.65
2018-11-11T01:57:44.284Z,43.63
2018-11-11T02:00:15.607Z,47.00
2018-11-11T02:02:43.610Z,44.65
2018-11-11T02:05:11.601Z,42.40
2018-11-11T02:07:38.940Z,46.23
2018-11-11T02:10:07.421Z,45.00
2018-11-11T02:12:34.716Z,47.17
2018-11-11T02:15:01.977Z,46.77
2018-11-11T02:17:29.458Z,46.87
2018-11-11T02:19:57.027Z,50.63
2018-11-11T02:22:24.292Z,47.93
2018-11-11T02:24:51.601Z,46.37
2018-11-11T02:27:18.935Z,48.95
2018-11-11T02:29:46.308Z,47.55
2018-11-11T02:32:13.691Z,47.43
2018-11-11T02:34:41.016Z,53.42
2018-11-11T02:37:08.321Z,48.37
2018-11-11T02:39:35.759Z,52.57
2018-11-11T02:42:03.129Z,50.83
2018-11-11T02:44:30.703Z,57.38
2018-11-11T02:46:57.996Z,54.03
2018-11-11T02:49:25.349Z,51.98
2018-11-11T02:51:52.648Z,50.47
2018-11-11T02:54:19.972Z,50.48
2018-11-11T02:56:47.272Z,50.10
2018-11-11T02:59:14.600Z,51.45
2018-11-11T03:01:41.967Z,55.33
2018-11-11T03:04:09.371Z,53.57
2018-11-11T03:06:36.610Z,52.10
2018-11-11T03:09:07.641Z,54.93
2018-11-11T03:11:34.973Z,56.17
2018-11-11T03:14:02.541Z,53.38
2018-11-11T03:16:29.845Z,55.98
2018-11-11T03:18:57.173Z,61.27
2018-11-11T03:21:24.524Z,61.18
2018-11-11T03:23:51.900Z,60.23
2018-11-11T03:26:19.226Z,61.05
2018-11-11T03:28:46.577Z,59.57
2018-11-11T03:31:13.950Z,61.33
2018-11-11T03:33:41.248Z,60.07
2018-11-11T03:36:08.553Z,61.55
2018-11-11T03:38:35.820Z,58.35
2018-11-11T03:41:03.143Z,60.70
2018-11-11T03:43:30.451Z,59.25
2018-11-11T03:45:57.751Z,60.63
2018-11-11T03:48:25.016Z,62.17
2018-11-11T03:50:52.349Z,62.40
2018-11-11T03:53:19.625Z,62.87
2018-11-11T03:55:46.964Z,58.87
2018-11-11T03:58:14.276Z,59.58
2018-11-11T04:00:41.628Z,58.55
2018-11-11T04:03:08.906Z,63.50
2018-11-11T04:05:36.233Z,59.08
2018-11-11T04:08:03.609Z,62.73
2018-11-11T04:10:30.980Z,60.20
2018-11-11T04:12:58.184Z,61.10
2018-11-11T04:15:25.524Z,59.30
2018-11-11T04:17:52.825Z,64.17
2018-11-11T04:20:20.566Z,61.53
2018-11-11T04:22:47.921Z,67.73
2018-11-11T04:25:16.018Z,62.07
2018-11-11T04:27:43.463Z,63.48
2018-11-11T04:30:11.985Z,62.07
2018-11-11T04:32:39.648Z,58.53
2018-11-11T04:35:06.976Z,64.40
2018-11-11T04:37:34.276Z,64.50
2018-11-11T04:40:01.612Z,68.43
2018-11-11T04:42:28.929Z,65.23
2018-11-11T04:44:56.192Z,65.90
2018-11-11T04:47:24.117Z,64.53
2018-11-11T04:49:51.416Z,64.92
2018-11-11T04:52:18.744Z,60.67
2018-11-11T04:54:46.036Z,63.57
2018-11-11T04:57:13.355Z,61.60
2018-11-11T04:59:40.643Z,58.03
2018-11-11T05:02:07.943Z,61.70
2018-11-11T05:04:35.301Z,60.20
2018-11-11T05:07:02.565Z,59.00
2018-11-11T05:09:29.879Z,54.65
2018-11-11T05:11:57.205Z,55.65
2018-11-11T05:14:24.473Z,56.13
2018-11-11T05:16:51.751Z,52.40
2018-11-11T05:19:19.110Z,58.67
2018-11-11T05:21:46.479Z,61.30
2018-11-11T05:24:13.742Z,58.77
2018-11-11T05:26:41.133Z,58.53
2018-11-11T05:29:08.475Z,58.68
2018-11-11T05:31:35.846Z,53.87
2018-11-11T05:34:03.244Z,55.97
2018-11-11T05:36:30.551Z,60.23
2018-11-11T05:38:58.929Z,54.90
2018-11-11T05:41:26.269Z,53.33
2018-11-11T05:43:53.598Z,54.17
2018-11-11T05:46:20.909Z,51.40
2018-11-11T05:48:48.197Z,50.27
2018-11-11T05:51:15.532Z,54.00
2018-11-11T05:53:42.893Z,51.60
2018-11-11T05:56:10.197Z,52.10
2018-11-11T05:58:37.487Z,48.30
2018-11-11T06:01:05.132Z,48.13
2018-11-11T06:03:33.186Z,48.98
2018-11-11T06:06:00.504Z,47.57
2018-11-11T06:08:27.848Z,50.17
2018-11-11T06:10:55.164Z,51.37
2018-11-11T06:13:22.436Z,51.87
2018-11-11T06:15:49.891Z,50.63
2018-11-11T06:18:17.241Z,54.03
2018-11-11T06:20:44.547Z,51.13
2018-11-11T06:23:12.285Z,51.37
2018-11-11T06:25:39.601Z,51.73
2018-11-11T06:28:06.950Z,58.77
2018-11-11T06:30:34.799Z,54.73
2018-11-11T06:33:02.095Z,57.77
2018-11-11T06:35:29.657Z,54.50
2018-11-11T06:37:56.941Z,50.00
2018-11-11T06:40:24.234Z,51.97
2018-11-11T06:42:51.541Z,51.27
2018-11-11T06:45:18.897Z,50.63
2018-11-11T06:47:46.170Z,51.70
2018-11-11T06:50:14.375Z,48.73
2018-11-11T06:52:42.469Z,47.17
2018-11-11T06:55:09.981Z,44.07
2018-11-11T06:57:37.813Z,41.73
2018-11-11T07:00:06.547Z,41.80
2018-11-11T07:02:36.463Z,39.37
2018-11-11T07:05:05.087Z,37.17
2018-11-11T07:07:32.435Z,40.63
2018-11-11T07:10:00.012Z,36.87
2018-11-11T07:12:27.714Z,34.38
2018-11-11T07:14:55.013Z,33.97
2018-11-11T07:17:22.339Z,30.15
2018-11-11T07:19:49.588Z,31.20
2018-11-11T07:22:16.920Z,33.67
2018-11-11T07:24:44.256Z,33.53
2018-11-11T07:27:11.528Z,31.27
2018-11-11T07:29:38.777Z,33.67
2018-11-11T07:32:06.069Z,33.25
2018-11-11T07:34:33.349Z,33.35
2018-11-11T07:37:00.680Z,36.80
2018-11-11T07:39:27.941Z,39.08
2018-11-11T07:41:55.234Z,37.55
2018-11-11T07:44:22.522Z,40.05
2018-11-11T07:46:49.799Z,36.00
2018-11-11T07:49:17.100Z,37.38
2018-11-11T07:51:44.357Z,30.30
2018-11-11T07:54:11.619Z,30.68
2018-11-11T07:56:38.884Z,32.20
2018-11-11T07:59:06.180Z,33.20
2018-11-11T08:01:33.497Z,32.73
2018-11-11T08:04:00.759Z,30.20
2018-11-11T08:06:28.065Z,29.77
2018-11-11T08:08:55.380Z,31.02
2018-11-11T08:11:34.260Z,28.83
2018-11-11T08:14:01.538Z,30.62
2018-11-11T08:16:28.911Z,31.43
2018-11-11T08:18:56.179Z,30.20
2018-11-11T08:21:23.679Z,46.87
2018-11-11T08:23:51.390Z,59.57
2018-11-11T08:26:18.706Z,117.37
2018-11-11T08:28:46.000Z,116.65
2018-11-11T08:31:13.282Z,129.75
2018-11-11T08:33:41.133Z,241.13
2018-11-11T18:49:58.984Z,32.50
2018-11-11T18:52:26.249Z,34.90
2018-11-11T18:54:53.685Z,34.03
2018-11-11T18:57:21.165Z,33.90
2018-11-11T18:59:48.325Z,37.03
2018-11-11T19:02:16.040Z,34.18
2018-11-11T19:04:43.307Z,33.88
2018-11-11T19:07:10.596Z,31.07
2018-11-11T19:09:37.897Z,32.28
2018-11-11T19:12:05.204Z,33.78
2018-11-11T19:14:32.585Z,32.33
2018-11-11T19:16:59.873Z,34.73
2018-11-11T19:19:27.817Z,39.18
2018-11-11T19:21:55.490Z,33.55
2018-11-11T19:24:23.352Z,36.13
2018-11-11T19:26:50.583Z,37.42
2018-11-11T19:29:17.837Z,35.65
2018-11-11T19:31:45.172Z,34.35
2018-11-11T19:34:12.511Z,34.48
2018-11-11T19:36:39.928Z,35.40
2018-11-11T19:39:09.332Z,33.55
2018-11-11T19:41:36.805Z,35.92
2018-11-11T19:44:04.420Z,34.13
2018-11-11T19:46:31.696Z,34.50
2018-11-11T19:48:58.967Z,33.25
2018-11-11T19:51:26.263Z,33.63
2018-11-11T19:53:53.501Z,34.80
2018-11-11T19:56:20.800Z,38.17
2018-11-11T19:58:49.143Z,37.55
2018-11-11T20:01:16.428Z,33.48
2018-11-11T20:03:43.720Z,37.80
2018-11-11T20:06:10.987Z,36.48
2018-11-11T20:08:38.277Z,34.65
2018-11-11T20:11:05.649Z,34.92
2018-11-11T20:13:32.954Z,44.85
2018-11-11T20:16:00.277Z,35.10
2018-11-11T20:18:27.552Z,35.35
2018-11-11T20:20:54.824Z,37.17
2018-11-11T20:23:22.129Z,36.17
2018-11-11T20:25:49.472Z,40.52
2018-11-11T20:28:16.896Z,36.88
2018-11-11T20:30:44.109Z,35.58
2018-11-11T20:33:11.505Z,37.78
2018-11-11T20:35:38.834Z,32.67
2018-11-11T20:38:06.189Z,35.48
2018-11-11T20:40:33.544Z,32.57
2018-11-11T20:43:00.906Z,33.53
2018-11-11T20:45:29.639Z,32.28
2018-11-11T20:47:56.996Z,33.88
2018-11-11T20:50:25.647Z,33.15
2018-11-11T20:52:54.803Z,31.82
2018-11-11T20:55:22.229Z,32.85
2018-11-11T20:57:49.560Z,30.75
2018-11-11T21:00:25.242Z,31.75
2018-11-11T21:02:52.678Z,29.90
2018-11-11T21:05:21.613Z,33.35
2018-11-11T21:07:48.978Z,34.58
2018-11-11T21:10:17.585Z,31.65
2018-11-11T21:12:44.896Z,33.73
2018-11-11T21:15:16.404Z,30.82
2018-11-11T21:17:45.055Z,35.37
2018-11-11T21:20:14.152Z,34.58
2018-11-11T21:22:42.100Z,32.65
2018-11-11T21:25:09.668Z,32.63
2018-11-11T21:27:37.748Z,33.55
2018-11-11T21:30:07.036Z,30.95
2018-11-11T21:32:34.370Z,34.33
2018-11-11T21:35:01.627Z,30.70
2018-11-11T21:37:28.896Z,33.83
2018-11-11T21:39:56.212Z,35.45
2018-11-11T21:42:23.528Z,30.05
2018-11-11T21:44:50.894Z,33.35
2018-11-11T21:47:18.133Z,30.17
2018-11-11T21:49:45.459Z,33.48
2018-11-11T21:52:12.797Z,33.95
2018-11-11T21:54:40.181Z,33.30
2018-11-11T21:57:07.524Z,40.40
2018-11-11T21:59:34.812Z,34.55
2018-11-11T22:02:02.171Z,30.37
2018-11-11T22:04:29.448Z,35.45
2018-11-11T22:06:56.814Z,32.28
2018-11-11T22:09:24.162Z,34.08
2018-11-11T22:11:51.450Z,36.80
2018-11-11T22:14:19.108Z,33.38
2018-11-11T22:16:46.368Z,30.95
2018-11-11T22:19:13.668Z,32.23
2018-11-11T22:21:41.015Z,34.53
2018-11-11T22:24:08.384Z,32.98
2018-11-11T22:26:35.692Z,32.28
2018-11-11T22:29:03.016Z,33.02
2018-11-11T22:31:30.340Z,30.35
2018-11-11T22:33:57.657Z,25.88
2018-11-11T22:36:24.980Z,27.23
2018-11-11T22:38:52.247Z,25.05
2018-11-11T22:41:20.059Z,27.25
2018-11-11T22:43:47.324Z,25.88
2018-11-11T22:46:14.646Z,24.25
2018-11-11T22:48:41.972Z,22.27
2018-11-11T22:51:09.274Z,25.47
2018-11-11T22:53:36.600Z,25.03
2018-11-11T22:56:03.949Z,24.70
2018-11-11T22:58:31.287Z,23.98
2018-11-11T23:01:05.354Z,24.55
2018-11-11T23:03:32.648Z,24.98
2018-11-11T23:06:00.040Z,24.92
2018-11-11T23:08:27.403Z,25.30
2018-11-11T23:10:54.697Z,25.62
2018-11-11T23:13:22.068Z,24.52
2018-11-11T23:15:50.303Z,24.50
2018-11-11T23:18:17.584Z,27.73
2018-11-11T23:20:45.276Z,24.10
2018-11-11T23:23:12.572Z,22.62
2018-11-11T23:25:39.888Z,28.90
2018-11-11T23:28:07.177Z,26.87
2018-11-11T23:30:34.420Z,25.97
2018-11-11T23:33:01.679Z,23.12
2018-11-11T23:35:28.925Z,25.65
2018-11-11T23:37:56.268Z,24.77
2018-11-11T23:40:23.524Z,24.70
2018-11-11T23:42:50.784Z,24.03
2018-11-11T23:45:18.065Z,23.27
2018-11-11T23:47:45.325Z,25.55
2018-11-11T23:50:16.834Z,25.05
2018-11-11T23:52:44.704Z,27.17
2018-11-11T23:55:13.204Z,26.07
2018-11-11T23:57:40.467Z,25.57
